sensor_id;sensor_type;location;lat;lon;timestamp;temperature;humidity
16032;DHT22;8120;48.308;8.914;2024-03-29T00:01:53;7.00;54.40
16032;DHT22;8120;48.308;8.914;2024-03-29T00:04:20;7.00;54.10
16032;DHT22;8120;48.308;8.914;2024-03-29T00:06:46;7.00;53.40
16032;DHT22;8120;48.308;8.914;2024-03-29T00:09:12;7.10;53.20
16032;DHT22;8120;48.308;8.914;2024-03-29T00:11:38;7.10;53.30
16032;DHT22;8120;48.308;8.914;2024-03-29T00:14:04;7.10;52.80
16032;DHT22;8120;48.308;8.914;2024-03-29T00:16:30;7.20;52.30
16032;DHT22;8120;48.308;8.914;2024-03-29T00:18:57;7.10;52.50
16032;DHT22;8120;48.308;8.914;2024-03-29T00:21:23;7.10;52.30
16032;DHT22;8120;48.308;8.914;2024-03-29T00:23:49;7.10;51.90
16032;DHT22;8120;48.308;8.914;2024-03-29T00:26:15;7.20;51.30
16032;DHT22;8120;48.308;8.914;2024-03-29T00:28:41;7.30;51.10
16032;DHT22;8120;48.308;8.914;2024-03-29T00:31:08;7.40;49.90
16032;DHT22;8120;48.308;8.914;2024-03-29T00:33:34;7.50;49.50
16032;DHT22;8120;48.308;8.914;2024-03-29T00:36:02;7.50;49.30
16032;DHT22;8120;48.308;8.914;2024-03-29T00:38:28;7.50;49.90
16032;DHT22;8120;48.308;8.914;2024-03-29T00:40:54;7.50;49.30
16032;DHT22;8120;48.308;8.914;2024-03-29T00:43:20;7.40;49.60
16032;DHT22;8120;48.308;8.914;2024-03-29T00:45:46;7.20;50.80
16032;DHT22;8120;48.308;8.914;2024-03-29T00:48:12;7.10;51.00
16032;DHT22;8120;48.308;8.914;2024-03-29T00:50:38;6.90;51.20
16032;DHT22;8120;48.308;8.914;2024-03-29T00:53:05;7.00;50.40
16032;DHT22;8120;48.308;8.914;2024-03-29T00:55:31;7.10;50.40
16032;DHT22;8120;48.308;8.914;2024-03-29T00:57:57;7.00;50.10
16032;DHT22;8120;48.308;8.914;2024-03-29T01:00:23;7.00;50.50
16032;DHT22;8120;48.308;8.914;2024-03-29T01:02:49;7.00;50.00
16032;DHT22;8120;48.308;8.914;2024-03-29T01:05:15;7.00;50.70
16032;DHT22;8120;48.308;8.914;2024-03-29T01:07:41;6.90;51.60
16032;DHT22;8120;48.308;8.914;2024-03-29T01:10:09;6.80;52.10
16032;DHT22;8120;48.308;8.914;2024-03-29T01:12:35;6.70;52.10
16032;DHT22;8120;48.308;8.914;2024-03-29T01:15:01;6.70;52.20
16032;DHT22;8120;48.308;8.914;2024-03-29T01:17:28;6.70;52.30
16032;DHT22;8120;48.308;8.914;2024-03-29T01:19:54;6.60;52.50
16032;DHT22;8120;48.308;8.914;2024-03-29T01:22:20;6.70;51.80
16032;DHT22;8120;48.308;8.914;2024-03-29T01:24:46;6.70;51.70
16032;DHT22;8120;48.308;8.914;2024-03-29T01:27:14;6.80;51.00
16032;DHT22;8120;48.308;8.914;2024-03-29T01:29:40;6.90;50.10
16032;DHT22;8120;48.308;8.914;2024-03-29T01:32:06;7.00;50.00
16032;DHT22;8120;48.308;8.914;2024-03-29T01:34:32;7.10;49.40
16032;DHT22;8120;48.308;8.914;2024-03-29T01:36:59;7.20;48.60
16032;DHT22;8120;48.308;8.914;2024-03-29T01:39:25;7.30;48.30
16032;DHT22;8120;48.308;8.914;2024-03-29T01:41:51;7.50;48.20
16032;DHT22;8120;48.308;8.914;2024-03-29T01:44:18;7.50;47.90
16032;DHT22;8120;48.308;8.914;2024-03-29T01:46:46;7.70;46.60
16032;DHT22;8120;48.308;8.914;2024-03-29T01:49:13;7.90;46.60
16032;DHT22;8120;48.308;8.914;2024-03-29T01:51:41;7.90;46.70
16032;DHT22;8120;48.308;8.914;2024-03-29T01:54:08;7.90;47.30
16032;DHT22;8120;48.308;8.914;2024-03-29T01:56:36;7.90;47.20
16032;DHT22;8120;48.308;8.914;2024-03-29T01:59:04;7.90;46.30
16032;DHT22;8120;48.308;8.914;2024-03-29T02:01:33;8.00;45.60
16032;DHT22;8120;48.308;8.914;2024-03-29T02:04:00;8.10;45.10
16032;DHT22;8120;48.308;8.914;2024-03-29T02:06:28;8.00;48.30
16032;DHT22;8120;48.308;8.914;2024-03-29T02:08:56;7.60;47.80
16032;DHT22;8120;48.308;8.914;2024-03-29T02:11:23;7.40;49.60
16032;DHT22;8120;48.308;8.914;2024-03-29T02:13:50;7.00;50.40
16032;DHT22;8120;48.308;8.914;2024-03-29T02:16:18;7.00;48.50
16032;DHT22;8120;48.308;8.914;2024-03-29T02:18:46;6.90;51.00
16032;DHT22;8120;48.308;8.914;2024-03-29T02:21:13;6.90;52.60
16032;DHT22;8120;48.308;8.914;2024-03-29T02:23:43;6.70;52.80
16032;DHT22;8120;48.308;8.914;2024-03-29T02:26:12;6.50;53.50
16032;DHT22;8120;48.308;8.914;2024-03-29T02:28:39;6.30;54.60
16032;DHT22;8120;48.308;8.914;2024-03-29T02:31:06;6.20;52.80
16032;DHT22;8120;48.308;8.914;2024-03-29T02:33:34;6.30;54.10
16032;DHT22;8120;48.308;8.914;2024-03-29T02:36:01;6.20;52.90
16032;DHT22;8120;48.308;8.914;2024-03-29T02:38:28;6.10;54.20
16032;DHT22;8120;48.308;8.914;2024-03-29T02:40:54;6.00;54.90
16032;DHT22;8120;48.308;8.914;2024-03-29T02:43:22;6.00;52.10
16032;DHT22;8120;48.308;8.914;2024-03-29T02:45:49;6.00;52.40
16032;DHT22;8120;48.308;8.914;2024-03-29T02:48:15;6.40;49.40
16032;DHT22;8120;48.308;8.914;2024-03-29T02:50:42;6.50;49.40
16032;DHT22;8120;48.308;8.914;2024-03-29T02:53:07;6.60;51.40
16032;DHT22;8120;48.308;8.914;2024-03-29T02:55:34;6.40;51.00
16032;DHT22;8120;48.308;8.914;2024-03-29T02:58:00;6.40;51.50
16032;DHT22;8120;48.308;8.914;2024-03-29T03:00:29;6.10;52.50
16032;DHT22;8120;48.308;8.914;2024-03-29T03:02:55;5.90;53.70
16032;DHT22;8120;48.308;8.914;2024-03-29T03:05:21;6.00;53.30
16032;DHT22;8120;48.308;8.914;2024-03-29T03:07:47;5.90;53.90
16032;DHT22;8120;48.308;8.914;2024-03-29T03:10:32;5.80;54.80
16032;DHT22;8120;48.308;8.914;2024-03-29T03:13:16;5.60;55.20
16032;DHT22;8120;48.308;8.914;2024-03-29T03:15:44;5.60;55.40
16032;DHT22;8120;48.308;8.914;2024-03-29T03:18:11;5.60;55.70
16032;DHT22;8120;48.308;8.914;2024-03-29T03:20:37;5.60;55.90
16032;DHT22;8120;48.308;8.914;2024-03-29T03:23:04;5.50;57.10
16032;DHT22;8120;48.308;8.914;2024-03-29T03:25:30;5.40;57.30
16032;DHT22;8120;48.308;8.914;2024-03-29T03:27:57;5.30;57.70
16032;DHT22;8120;48.308;8.914;2024-03-29T03:30:23;5.20;57.90
16032;DHT22;8120;48.308;8.914;2024-03-29T03:32:51;5.30;57.90
16032;DHT22;8120;48.308;8.914;2024-03-29T03:35:17;5.40;58.10
16032;DHT22;8120;48.308;8.914;2024-03-29T03:37:44;5.30;58.00
16032;DHT22;8120;48.308;8.914;2024-03-29T03:40:10;5.30;58.30
16032;DHT22;8120;48.308;8.914;2024-03-29T03:42:37;5.20;58.60
16032;DHT22;8120;48.308;8.914;2024-03-29T03:45:04;5.20;58.50
16032;DHT22;8120;48.308;8.914;2024-03-29T03:47:31;5.30;58.50
16032;DHT22;8120;48.308;8.914;2024-03-29T03:49:58;5.40;59.40
16032;DHT22;8120;48.308;8.914;2024-03-29T03:52:25;5.40;58.10
16032;DHT22;8120;48.308;8.914;2024-03-29T03:54:51;5.30;58.10
16032;DHT22;8120;48.308;8.914;2024-03-29T03:57:18;5.50;54.70
16032;DHT22;8120;48.308;8.914;2024-03-29T03:59:44;5.90;56.20
16032;DHT22;8120;48.308;8.914;2024-03-29T04:02:11;6.10;51.70
16032;DHT22;8120;48.308;8.914;2024-03-29T04:04:37;6.60;52.10
16032;DHT22;8120;48.308;8.914;2024-03-29T04:07:05;7.00;51.10
16032;DHT22;8120;48.308;8.914;2024-03-29T04:09:31;7.00;52.30
16032;DHT22;8120;48.308;8.914;2024-03-29T04:11:58;6.90;52.60
16032;DHT22;8120;48.308;8.914;2024-03-29T04:14:24;6.50;54.60
16032;DHT22;8120;48.308;8.914;2024-03-29T04:16:51;6.30;55.80
16032;DHT22;8120;48.308;8.914;2024-03-29T04:19:17;6.20;56.70
16032;DHT22;8120;48.308;8.914;2024-03-29T04:21:44;6.00;58.90
16032;DHT22;8120;48.308;8.914;2024-03-29T04:24:11;5.80;60.00
16032;DHT22;8120;48.308;8.914;2024-03-29T04:26:38;5.60;60.50
16032;DHT22;8120;48.308;8.914;2024-03-29T04:29:05;5.60;59.80
16032;DHT22;8120;48.308;8.914;2024-03-29T04:31:32;5.40;61.00
16032;DHT22;8120;48.308;8.914;2024-03-29T04:33:58;5.40;61.00
16032;DHT22;8120;48.308;8.914;2024-03-29T04:36:25;5.30;60.90
16032;DHT22;8120;48.308;8.914;2024-03-29T04:38:50;5.30;61.20
16032;DHT22;8120;48.308;8.914;2024-03-29T04:41:20;5.30;61.10
16032;DHT22;8120;48.308;8.914;2024-03-29T04:43:47;5.50;59.80
16032;DHT22;8120;48.308;8.914;2024-03-29T04:46:14;5.40;61.80
16032;DHT22;8120;48.308;8.914;2024-03-29T04:48:42;5.40;61.90
16032;DHT22;8120;48.308;8.914;2024-03-29T04:51:10;5.30;61.40
16032;DHT22;8120;48.308;8.914;2024-03-29T04:53:37;5.20;61.40
16032;DHT22;8120;48.308;8.914;2024-03-29T04:56:05;5.20;60.90
16032;DHT22;8120;48.308;8.914;2024-03-29T04:58:33;5.40;58.80
16032;DHT22;8120;48.308;8.914;2024-03-29T05:01:00;5.90;58.00
16032;DHT22;8120;48.308;8.914;2024-03-29T05:03:27;6.30;59.00
16032;DHT22;8120;48.308;8.914;2024-03-29T05:05:54;5.90;60.20
16032;DHT22;8120;48.308;8.914;2024-03-29T05:08:21;5.70;60.20
16032;DHT22;8120;48.308;8.914;2024-03-29T05:10:49;5.80;60.00
16032;DHT22;8120;48.308;8.914;2024-03-29T05:13:16;5.70;61.10
16032;DHT22;8120;48.308;8.914;2024-03-29T05:15:45;5.70;60.50
16032;DHT22;8120;48.308;8.914;2024-03-29T05:18:13;6.10;60.10
16032;DHT22;8120;48.308;8.914;2024-03-29T05:20:40;5.70;61.00
16032;DHT22;8120;48.308;8.914;2024-03-29T05:23:12;5.60;61.70
16032;DHT22;8120;48.308;8.914;2024-03-29T05:25:40;5.70;60.40
16032;DHT22;8120;48.308;8.914;2024-03-29T05:28:07;5.90;60.00
16032;DHT22;8120;48.308;8.914;2024-03-29T05:30:34;6.00;61.30
16032;DHT22;8120;48.308;8.914;2024-03-29T05:33:03;6.00;61.10
16032;DHT22;8120;48.308;8.914;2024-03-29T05:35:32;6.00;60.20
16032;DHT22;8120;48.308;8.914;2024-03-29T05:37:59;5.90;60.30
16032;DHT22;8120;48.308;8.914;2024-03-29T05:40:26;5.90;60.50
16032;DHT22;8120;48.308;8.914;2024-03-29T05:42:54;5.90;60.60
16032;DHT22;8120;48.308;8.914;2024-03-29T05:45:26;6.10;59.30
16032;DHT22;8120;48.308;8.914;2024-03-29T05:47:54;6.40;55.30
16032;DHT22;8120;48.308;8.914;2024-03-29T05:50:24;7.00;53.30
16032;DHT22;8120;48.308;8.914;2024-03-29T05:52:51;7.50;51.10
16032;DHT22;8120;48.308;8.914;2024-03-29T05:55:18;8.00;50.00
16032;DHT22;8120;48.308;8.914;2024-03-29T05:57:45;8.60;47.40
16032;DHT22;8120;48.308;8.914;2024-03-29T06:00:14;9.40;44.60
16032;DHT22;8120;48.308;8.914;2024-03-29T06:02:41;10.00;43.40
16032;DHT22;8120;48.308;8.914;2024-03-29T06:05:10;10.50;42.90
16032;DHT22;8120;48.308;8.914;2024-03-29T06:07:39;10.80;42.30
16032;DHT22;8120;48.308;8.914;2024-03-29T06:10:06;11.10;41.50
16032;DHT22;8120;48.308;8.914;2024-03-29T06:12:33;11.30;41.40
16032;DHT22;8120;48.308;8.914;2024-03-29T06:15:01;11.50;40.60
16032;DHT22;8120;48.308;8.914;2024-03-29T06:17:46;11.50;41.40
16032;DHT22;8120;48.308;8.914;2024-03-29T06:20:13;11.60;40.60
16032;DHT22;8120;48.308;8.914;2024-03-29T06:22:41;11.70;41.30
16032;DHT22;8120;48.308;8.914;2024-03-29T06:25:08;11.80;40.60
16032;DHT22;8120;48.308;8.914;2024-03-29T06:27:36;11.90;41.00
16032;DHT22;8120;48.308;8.914;2024-03-29T06:30:04;12.00;41.20
16032;DHT22;8120;48.308;8.914;2024-03-29T06:32:31;12.10;40.90
16032;DHT22;8120;48.308;8.914;2024-03-29T06:34:58;12.10;41.70
16032;DHT22;8120;48.308;8.914;2024-03-29T06:37:25;12.10;41.40
16032;DHT22;8120;48.308;8.914;2024-03-29T06:39:55;12.20;41.50
16032;DHT22;8120;48.308;8.914;2024-03-29T06:42:22;12.30;42.30
16032;DHT22;8120;48.308;8.914;2024-03-29T06:44:49;12.30;42.70
16032;DHT22;8120;48.308;8.914;2024-03-29T06:47:17;12.30;43.10
16032;DHT22;8120;48.308;8.914;2024-03-29T06:49:44;12.20;43.40
16032;DHT22;8120;48.308;8.914;2024-03-29T06:52:12;12.30;43.90
16032;DHT22;8120;48.308;8.914;2024-03-29T06:54:39;11.80;43.50
16032;DHT22;8120;48.308;8.914;2024-03-29T06:57:07;11.40;46.90
16032;DHT22;8120;48.308;8.914;2024-03-29T06:59:35;11.20;48.20
16032;DHT22;8120;48.308;8.914;2024-03-29T07:02:03;11.00;50.10
16032;DHT22;8120;48.308;8.914;2024-03-29T07:04:30;11.10;53.00
16032;DHT22;8120;48.308;8.914;2024-03-29T07:06:58;11.30;52.00
16032;DHT22;8120;48.308;8.914;2024-03-29T07:09:25;11.60;52.60
16032;DHT22;8120;48.308;8.914;2024-03-29T07:11:52;11.80;51.90
16032;DHT22;8120;48.308;8.914;2024-03-29T07:14:21;12.00;50.90
16032;DHT22;8120;48.308;8.914;2024-03-29T07:16:49;12.10;50.50
16032;DHT22;8120;48.308;8.914;2024-03-29T07:19:16;12.20;50.00
16032;DHT22;8120;48.308;8.914;2024-03-29T07:21:45;12.30;49.30
16032;DHT22;8120;48.308;8.914;2024-03-29T07:24:12;12.30;49.50
16032;DHT22;8120;48.308;8.914;2024-03-29T07:26:39;12.40;51.30
16032;DHT22;8120;48.308;8.914;2024-03-29T07:29:06;12.50;51.10
16032;DHT22;8120;48.308;8.914;2024-03-29T07:31:35;12.60;51.60
16032;DHT22;8120;48.308;8.914;2024-03-29T07:34:01;12.70;47.00
16032;DHT22;8120;48.308;8.914;2024-03-29T07:36:28;12.80;46.20
16032;DHT22;8120;48.308;8.914;2024-03-29T07:39:01;12.70;46.40
16032;DHT22;8120;48.308;8.914;2024-03-29T07:41:29;12.60;46.40
16032;DHT22;8120;48.308;8.914;2024-03-29T07:43:57;12.50;46.90
16032;DHT22;8120;48.308;8.914;2024-03-29T07:46:32;12.50;47.90
16032;DHT22;8120;48.308;8.914;2024-03-29T07:49:01;12.40;48.40
16032;DHT22;8120;48.308;8.914;2024-03-29T07:51:28;12.50;48.00
16032;DHT22;8120;48.308;8.914;2024-03-29T07:53:55;12.50;48.60
16032;DHT22;8120;48.308;8.914;2024-03-29T07:56:22;12.60;47.30
16032;DHT22;8120;48.308;8.914;2024-03-29T07:58:51;12.60;47.40
16032;DHT22;8120;48.308;8.914;2024-03-29T08:01:19;12.60;48.40
16032;DHT22;8120;48.308;8.914;2024-03-29T08:03:47;12.70;49.20
16032;DHT22;8120;48.308;8.914;2024-03-29T08:06:15;12.70;48.00
16032;DHT22;8120;48.308;8.914;2024-03-29T08:08:45;12.80;48.10
16032;DHT22;8120;48.308;8.914;2024-03-29T08:11:12;12.70;50.90
16032;DHT22;8120;48.308;8.914;2024-03-29T08:13:39;12.50;51.90
16032;DHT22;8120;48.308;8.914;2024-03-29T08:16:07;12.30;51.60
16032;DHT22;8120;48.308;8.914;2024-03-29T08:18:35;12.30;51.70
16032;DHT22;8120;48.308;8.914;2024-03-29T08:21:02;12.50;51.20
16032;DHT22;8120;48.308;8.914;2024-03-29T08:23:30;12.60;53.00
16032;DHT22;8120;48.308;8.914;2024-03-29T08:25:57;12.80;52.20
16032;DHT22;8120;48.308;8.914;2024-03-29T08:28:24;12.90;52.00
16032;DHT22;8120;48.308;8.914;2024-03-29T08:30:58;12.90;53.00
16032;DHT22;8120;48.308;8.914;2024-03-29T08:33:26;12.80;54.20
16032;DHT22;8120;48.308;8.914;2024-03-29T08:35:53;12.90;54.90
16032;DHT22;8120;48.308;8.914;2024-03-29T08:38:20;12.70;56.90
16032;DHT22;8120;48.308;8.914;2024-03-29T08:40:48;12.80;56.90
16032;DHT22;8120;48.308;8.914;2024-03-29T08:43:16;12.90;56.90
16032;DHT22;8120;48.308;8.914;2024-03-29T08:45:43;12.80;57.70
16032;DHT22;8120;48.308;8.914;2024-03-29T08:48:11;13.10;57.20
16032;DHT22;8120;48.308;8.914;2024-03-29T08:50:38;13.40;54.10
16032;DHT22;8120;48.308;8.914;2024-03-29T08:53:05;13.10;57.00
16032;DHT22;8120;48.308;8.914;2024-03-29T08:55:33;12.70;58.30
16032;DHT22;8120;48.308;8.914;2024-03-29T08:58:03;12.30;58.80
16032;DHT22;8120;48.308;8.914;2024-03-29T09:00:31;12.10;59.80
16032;DHT22;8120;48.308;8.914;2024-03-29T09:02:58;12.00;60.00
16032;DHT22;8120;48.308;8.914;2024-03-29T09:05:27;12.00;59.10
16032;DHT22;8120;48.308;8.914;2024-03-29T09:07:54;11.90;59.80
16032;DHT22;8120;48.308;8.914;2024-03-29T09:10:22;11.90;60.10
16032;DHT22;8120;48.308;8.914;2024-03-29T09:12:49;11.60;61.50
16032;DHT22;8120;48.308;8.914;2024-03-29T09:15:17;11.80;62.20
16032;DHT22;8120;48.308;8.914;2024-03-29T09:17:44;12.10;62.00
16032;DHT22;8120;48.308;8.914;2024-03-29T09:20:12;12.20;61.70
16032;DHT22;8120;48.308;8.914;2024-03-29T09:22:39;12.30;60.90
16032;DHT22;8120;48.308;8.914;2024-03-29T09:25:07;12.40;59.80
16032;DHT22;8120;48.308;8.914;2024-03-29T09:27:36;12.50;60.60
16032;DHT22;8120;48.308;8.914;2024-03-29T09:30:06;12.60;59.70
16032;DHT22;8120;48.308;8.914;2024-03-29T09:32:36;13.00;58.90
16032;DHT22;8120;48.308;8.914;2024-03-29T09:35:04;13.00;58.60
16032;DHT22;8120;48.308;8.914;2024-03-29T09:37:31;13.20;56.30
16032;DHT22;8120;48.308;8.914;2024-03-29T09:40:02;13.40;55.70
16032;DHT22;8120;48.308;8.914;2024-03-29T09:42:32;13.80;54.40
16032;DHT22;8120;48.308;8.914;2024-03-29T09:45:02;14.10;53.00
16032;DHT22;8120;48.308;8.914;2024-03-29T09:47:31;14.50;53.10
16032;DHT22;8120;48.308;8.914;2024-03-29T09:50:02;14.90;52.80
16032;DHT22;8120;48.308;8.914;2024-03-29T09:52:32;14.90;55.60
16032;DHT22;8120;48.308;8.914;2024-03-29T09:55:00;14.60;56.70
16032;DHT22;8120;48.308;8.914;2024-03-29T09:57:27;14.30;54.20
16032;DHT22;8120;48.308;8.914;2024-03-29T09:59:56;13.90;56.40
16032;DHT22;8120;48.308;8.914;2024-03-29T10:02:27;13.60;57.50
16032;DHT22;8120;48.308;8.914;2024-03-29T10:04:56;13.60;54.10
16032;DHT22;8120;48.308;8.914;2024-03-29T10:07:26;13.80;56.20
16032;DHT22;8120;48.308;8.914;2024-03-29T10:09:53;13.90;59.70
16032;DHT22;8120;48.308;8.914;2024-03-29T10:12:21;13.90;59.20
16032;DHT22;8120;48.308;8.914;2024-03-29T10:14:49;14.20;58.50
16032;DHT22;8120;48.308;8.914;2024-03-29T10:17:18;14.60;56.80
16032;DHT22;8120;48.308;8.914;2024-03-29T10:19:46;14.50;56.40
16032;DHT22;8120;48.308;8.914;2024-03-29T10:22:13;14.60;57.20
16032;DHT22;8120;48.308;8.914;2024-03-29T10:24:41;14.50;55.20
16032;DHT22;8120;48.308;8.914;2024-03-29T10:27:08;14.60;54.50
16032;DHT22;8120;48.308;8.914;2024-03-29T10:29:35;14.70;54.80
16032;DHT22;8120;48.308;8.914;2024-03-29T10:32:02;14.90;54.00
16032;DHT22;8120;48.308;8.914;2024-03-29T10:34:29;15.20;53.10
16032;DHT22;8120;48.308;8.914;2024-03-29T10:37:01;15.10;53.40
16032;DHT22;8120;48.308;8.914;2024-03-29T10:39:29;15.50;51.60
16032;DHT22;8120;48.308;8.914;2024-03-29T10:41:59;15.80;50.30
16032;DHT22;8120;48.308;8.914;2024-03-29T10:44:27;15.90;52.20
16032;DHT22;8120;48.308;8.914;2024-03-29T10:46:56;15.80;53.60
16032;DHT22;8120;48.308;8.914;2024-03-29T10:49:23;15.90;52.60
16032;DHT22;8120;48.308;8.914;2024-03-29T10:51:50;15.90;53.70
16032;DHT22;8120;48.308;8.914;2024-03-29T10:54:19;15.70;53.20
16032;DHT22;8120;48.308;8.914;2024-03-29T10:56:47;15.40;52.80
16032;DHT22;8120;48.308;8.914;2024-03-29T10:59:22;14.70;54.90
16032;DHT22;8120;48.308;8.914;2024-03-29T11:01:54;14.70;56.40
16032;DHT22;8120;48.308;8.914;2024-03-29T11:04:28;14.40;58.10
16032;DHT22;8120;48.308;8.914;2024-03-29T11:06:58;13.40;58.00
16032;DHT22;8120;48.308;8.914;2024-03-29T11:09:31;13.90;57.60
16032;DHT22;8120;48.308;8.914;2024-03-29T11:12:01;14.20;56.70
16032;DHT22;8120;48.308;8.914;2024-03-29T11:14:35;14.10;56.60
16032;DHT22;8120;48.308;8.914;2024-03-29T11:17:04;14.20;56.70
16032;DHT22;8120;48.308;8.914;2024-03-29T11:19:31;14.30;57.50
16032;DHT22;8120;48.308;8.914;2024-03-29T11:21:59;14.60;57.50
16032;DHT22;8120;48.308;8.914;2024-03-29T11:24:26;14.90;56.80
16032;DHT22;8120;48.308;8.914;2024-03-29T11:26:54;15.10;54.80
16032;DHT22;8120;48.308;8.914;2024-03-29T11:29:21;15.50;55.00
16032;DHT22;8120;48.308;8.914;2024-03-29T11:31:57;15.20;53.70
16032;DHT22;8120;48.308;8.914;2024-03-29T11:34:24;15.30;54.50
16032;DHT22;8120;48.308;8.914;2024-03-29T11:36:51;15.50;53.10
16032;DHT22;8120;48.308;8.914;2024-03-29T11:39:22;15.70;53.70
16032;DHT22;8120;48.308;8.914;2024-03-29T11:41:50;15.40;53.00
16032;DHT22;8120;48.308;8.914;2024-03-29T11:44:17;15.40;54.60
16032;DHT22;8120;48.308;8.914;2024-03-29T11:46:45;15.50;53.10
16032;DHT22;8120;48.308;8.914;2024-03-29T11:49:14;16.00;52.20
16032;DHT22;8120;48.308;8.914;2024-03-29T11:51:41;15.30;53.20
16032;DHT22;8120;48.308;8.914;2024-03-29T11:54:09;15.50;53.10
16032;DHT22;8120;48.308;8.914;2024-03-29T11:56:36;15.30;52.70
16032;DHT22;8120;48.308;8.914;2024-03-29T11:59:04;15.30;53.30
16032;DHT22;8120;48.308;8.914;2024-03-29T12:01:32;15.80;53.70
16032;DHT22;8120;48.308;8.914;2024-03-29T12:04:00;15.50;53.30
16032;DHT22;8120;48.308;8.914;2024-03-29T12:06:28;15.60;53.20
16032;DHT22;8120;48.308;8.914;2024-03-29T12:08:55;15.50;52.90
16032;DHT22;8120;48.308;8.914;2024-03-29T12:11:23;15.70;53.00
16032;DHT22;8120;48.308;8.914;2024-03-29T12:13:51;15.60;52.10
16032;DHT22;8120;48.308;8.914;2024-03-29T12:16:18;15.40;52.30
16032;DHT22;8120;48.308;8.914;2024-03-29T12:18:47;14.70;53.60
16032;DHT22;8120;48.308;8.914;2024-03-29T12:21:14;14.80;54.40
16032;DHT22;8120;48.308;8.914;2024-03-29T12:23:48;15.10;53.00
16032;DHT22;8120;48.308;8.914;2024-03-29T12:26:16;15.20;52.20
16032;DHT22;8120;48.308;8.914;2024-03-29T12:28:49;15.00;51.90
16032;DHT22;8120;48.308;8.914;2024-03-29T12:31:16;15.00;52.70
16032;DHT22;8120;48.308;8.914;2024-03-29T12:33:51;15.40;51.70
16032;DHT22;8120;48.308;8.914;2024-03-29T12:36:18;15.60;52.30
16032;DHT22;8120;48.308;8.914;2024-03-29T12:38:51;16.00;51.30
16032;DHT22;8120;48.308;8.914;2024-03-29T12:41:21;15.60;51.70
16032;DHT22;8120;48.308;8.914;2024-03-29T12:43:50;15.10;52.80
16032;DHT22;8120;48.308;8.914;2024-03-29T12:46:17;14.80;54.30
16032;DHT22;8120;48.308;8.914;2024-03-29T12:48:44;14.80;55.10
16032;DHT22;8120;48.308;8.914;2024-03-29T12:51:12;14.90;55.70
16032;DHT22;8120;48.308;8.914;2024-03-29T12:53:39;15.10;55.10
16032;DHT22;8120;48.308;8.914;2024-03-29T12:56:08;15.30;54.20
16032;DHT22;8120;48.308;8.914;2024-03-29T12:58:35;15.30;52.20
16032;DHT22;8120;48.308;8.914;2024-03-29T13:01:03;15.30;53.20
16032;DHT22;8120;48.308;8.914;2024-03-29T13:03:29;15.00;53.90
16032;DHT22;8120;48.308;8.914;2024-03-29T13:05:56;15.10;54.30
16032;DHT22;8120;48.308;8.914;2024-03-29T13:08:23;15.20;54.60
16032;DHT22;8120;48.308;8.914;2024-03-29T13:10:50;15.10;53.10
16032;DHT22;8120;48.308;8.914;2024-03-29T13:13:18;15.00;49.40
16032;DHT22;8120;48.308;8.914;2024-03-29T13:15:45;15.10;50.60
16032;DHT22;8120;48.308;8.914;2024-03-29T13:18:13;15.10;51.10
16032;DHT22;8120;48.308;8.914;2024-03-29T13:20:42;15.00;50.80
16032;DHT22;8120;48.308;8.914;2024-03-29T13:23:09;15.20;49.30
16032;DHT22;8120;48.308;8.914;2024-03-29T13:25:36;15.30;47.30
16032;DHT22;8120;48.308;8.914;2024-03-29T13:28:03;15.60;47.80
16032;DHT22;8120;48.308;8.914;2024-03-29T13:30:33;15.70;49.00
16032;DHT22;8120;48.308;8.914;2024-03-29T13:32:59;15.60;49.40
16032;DHT22;8120;48.308;8.914;2024-03-29T13:35:26;15.40;50.30
16032;DHT22;8120;48.308;8.914;2024-03-29T13:37:54;15.40;50.90
16032;DHT22;8120;48.308;8.914;2024-03-29T13:40:22;15.40;50.60
16032;DHT22;8120;48.308;8.914;2024-03-29T13:42:50;15.60;50.40
16032;DHT22;8120;48.308;8.914;2024-03-29T13:45:17;15.50;48.70
16032;DHT22;8120;48.308;8.914;2024-03-29T13:47:46;15.70;48.50
16032;DHT22;8120;48.308;8.914;2024-03-29T13:50:13;15.80;49.60
16032;DHT22;8120;48.308;8.914;2024-03-29T13:52:41;16.10;49.80
16032;DHT22;8120;48.308;8.914;2024-03-29T13:55:10;16.20;49.50
16032;DHT22;8120;48.308;8.914;2024-03-29T13:57:38;16.10;50.60
16032;DHT22;8120;48.308;8.914;2024-03-29T14:00:06;16.00;49.40
16032;DHT22;8120;48.308;8.914;2024-03-29T14:02:33;15.90;49.30
16032;DHT22;8120;48.308;8.914;2024-03-29T14:05:02;15.90;50.10
16032;DHT22;8120;48.308;8.914;2024-03-29T14:07:29;16.00;49.00
16032;DHT22;8120;48.308;8.914;2024-03-29T14:09:56;16.10;50.10
16032;DHT22;8120;48.308;8.914;2024-03-29T14:12:24;16.20;50.00
16032;DHT22;8120;48.308;8.914;2024-03-29T14:14:51;15.90;50.10
16032;DHT22;8120;48.308;8.914;2024-03-29T14:17:19;15.90;50.30
16032;DHT22;8120;48.308;8.914;2024-03-29T14:19:47;15.80;51.10
16032;DHT22;8120;48.308;8.914;2024-03-29T14:22:16;15.70;50.50
16032;DHT22;8120;48.308;8.914;2024-03-29T14:24:45;15.60;50.90
16032;DHT22;8120;48.308;8.914;2024-03-29T14:27:12;15.70;51.70
16032;DHT22;8120;48.308;8.914;2024-03-29T14:29:40;15.90;51.20
16032;DHT22;8120;48.308;8.914;2024-03-29T14:32:09;16.10;50.80
16032;DHT22;8120;48.308;8.914;2024-03-29T14:34:36;16.10;49.90
16032;DHT22;8120;48.308;8.914;2024-03-29T14:37:10;16.00;50.50
16032;DHT22;8120;48.308;8.914;2024-03-29T14:39:40;15.90;51.10
16032;DHT22;8120;48.308;8.914;2024-03-29T14:42:08;15.80;51.20
16032;DHT22;8120;48.308;8.914;2024-03-29T14:44:37;15.80;51.70
16032;DHT22;8120;48.308;8.914;2024-03-29T14:47:04;15.80;51.90
16032;DHT22;8120;48.308;8.914;2024-03-29T14:49:31;15.70;51.30
16032;DHT22;8120;48.308;8.914;2024-03-29T14:51:58;15.80;51.30
16032;DHT22;8120;48.308;8.914;2024-03-29T14:54:26;16.00;50.60
16032;DHT22;8120;48.308;8.914;2024-03-29T14:56:54;16.00;51.00
16032;DHT22;8120;48.308;8.914;2024-03-29T14:59:21;16.00;49.50
16032;DHT22;8120;48.308;8.914;2024-03-29T15:01:48;15.90;49.10
16032;DHT22;8120;48.308;8.914;2024-03-29T15:04:15;15.80;49.70
16032;DHT22;8120;48.308;8.914;2024-03-29T15:06:42;15.80;50.20
16032;DHT22;8120;48.308;8.914;2024-03-29T15:09:08;15.80;50.50
16032;DHT22;8120;48.308;8.914;2024-03-29T15:11:35;15.90;49.20
16032;DHT22;8120;48.308;8.914;2024-03-29T15:14:04;15.90;48.70
16032;DHT22;8120;48.308;8.914;2024-03-29T15:16:32;16.00;49.10
16032;DHT22;8120;48.308;8.914;2024-03-29T15:18:59;16.00;49.50
16032;DHT22;8120;48.308;8.914;2024-03-29T15:21:27;16.10;49.90
16032;DHT22;8120;48.308;8.914;2024-03-29T15:23:55;16.10;49.80
16032;DHT22;8120;48.308;8.914;2024-03-29T15:26:22;16.10;50.20
16032;DHT22;8120;48.308;8.914;2024-03-29T15:28:50;16.10;50.80
16032;DHT22;8120;48.308;8.914;2024-03-29T15:31:38;16.10;51.50
16032;DHT22;8120;48.308;8.914;2024-03-29T15:34:06;15.90;52.20
16032;DHT22;8120;48.308;8.914;2024-03-29T15:36:33;15.90;52.30
16032;DHT22;8120;48.308;8.914;2024-03-29T15:39:02;15.90;52.70
16032;DHT22;8120;48.308;8.914;2024-03-29T15:41:34;15.80;53.00
16032;DHT22;8120;48.308;8.914;2024-03-29T15:44:01;15.70;53.30
16032;DHT22;8120;48.308;8.914;2024-03-29T15:46:29;15.60;53.90
16032;DHT22;8120;48.308;8.914;2024-03-29T15:48:58;15.60;54.10
16032;DHT22;8120;48.308;8.914;2024-03-29T15:51:25;15.60;54.70
16032;DHT22;8120;48.308;8.914;2024-03-29T15:53:53;15.50;55.00
16032;DHT22;8120;48.308;8.914;2024-03-29T15:56:26;15.40;55.30